createdAt,value
2023-04-04T00:00:14.945Z,102155.41
2023-04-04T00:02:41.569Z,102158.25
2023-04-04T00:05:08.696Z,102163.94
2023-04-04T00:07:35.251Z,102159.59
2023-04-04T00:10:01.943Z,102154.59
2023-04-04T00:12:29.911Z,102149.41
2023-04-04T00:14:57.489Z,102150.88
2023-04-04T00:17:24.006Z,102146.72
2023-04-04T00:19:50.619Z,102149.94
2023-04-04T00:22:18.120Z,102153.88
2023-04-04T00:24:44.497Z,102155.00
2023-04-04T00:27:10.979Z,102154.13
2023-04-04T00:29:37.360Z,102157.84
2023-04-04T00:32:04.020Z,102151.56
2023-04-04T00:34:30.465Z,102147.38
2023-04-04T00:36:56.817Z,102152.31
2023-04-04T00:39:23.745Z,102149.97
2023-04-04T00:41:50.403Z,102154.94
2023-04-04T00:44:17.075Z,102156.38
2023-04-04T00:46:43.906Z,102154.94
2023-04-04T00:49:10.440Z,102158.00
2023-04-04T00:51:36.901Z,102153.69
2023-04-04T00:54:03.992Z,102153.94
2023-04-04T00:56:33.093Z,102163.06
2023-04-04T00:59:00.888Z,102163.19
2023-04-04T01:01:27.515Z,102159.84
2023-04-04T01:03:54.527Z,102158.13
2023-04-04T01:06:21.181Z,102164.66
2023-04-04T01:08:48.981Z,102162.94
2023-04-04T01:11:16.722Z,102167.50
2023-04-04T01:13:43.992Z,102163.06
2023-04-04T01:16:10.502Z,102158.63
2023-04-04T01:18:38.355Z,102156.78
2023-04-04T01:21:10.877Z,102155.91
2023-04-04T01:23:51.886Z,102155.03
2023-04-04T01:26:21.156Z,102158.88
2023-04-04T01:28:47.629Z,102157.13
2023-04-04T01:31:18.144Z,102158.88
2023-04-04T01:33:48.958Z,102158.13
2023-04-04T01:36:25.821Z,102146.28
2023-04-04T01:39:07.861Z,102151.81
2023-04-04T01:41:35.423Z,102156.41
2023-04-04T01:44:02.969Z,102150.22
2023-04-04T01:46:29.531Z,102150.47
2023-04-04T01:48:56.074Z,102149.00
2023-04-04T01:51:23.826Z,102150.47
2023-04-04T01:53:50.368Z,102147.00
2023-04-04T01:56:16.906Z,102150.97
2023-04-04T01:58:43.484Z,102146.75
2023-04-04T02:01:09.948Z,102145.03
2023-04-04T02:03:36.584Z,102148.72
2023-04-04T02:06:03.131Z,102152.19
2023-04-04T02:08:29.573Z,102150.19
2023-04-04T02:10:59.092Z,102148.88
2023-04-04T02:13:25.539Z,102151.44
2023-04-04T02:15:52.424Z,102150.47
2023-04-04T02:18:19.265Z,102147.75
2023-04-04T02:20:45.652Z,102146.88
2023-04-04T02:23:12.086Z,102148.88
2023-04-04T02:25:38.494Z,102151.69
2023-04-04T02:28:05.054Z,102145.66
2023-04-04T02:30:31.647Z,102147.50
2023-04-04T02:32:59.701Z,102145.03
2023-04-04T02:35:26.459Z,102141.56
2023-04-04T02:37:52.891Z,102146.97
2023-04-04T02:40:19.389Z,102148.00
2023-04-04T02:42:45.942Z,102141.81
2023-04-04T02:45:14.357Z,102141.06
2023-04-04T02:47:42.522Z,102145.97
2023-04-04T02:50:12.158Z,102142.53
2023-04-04T02:52:38.595Z,102141.16
2023-04-04T02:55:06.122Z,102143.13
2023-04-04T02:57:32.690Z,102132.41
2023-04-04T02:59:59.174Z,102132.66
2023-04-04T03:02:26.187Z,102127.34
2023-04-04T03:04:52.979Z,102126.50
2023-04-04T03:07:19.413Z,102122.69
2023-04-04T03:09:45.820Z,102128.09
2023-04-04T03:12:12.390Z,102123.66
2023-04-04T03:14:38.856Z,102119.34
2023-04-04T03:17:06.281Z,102116.00
2023-04-04T03:19:33.089Z,102115.88
2023-04-04T03:21:59.562Z,102107.00
2023-04-04T03:24:25.967Z,102108.84
2023-04-04T03:26:52.385Z,102108.97
2023-04-04T03:29:18.850Z,102104.66
2023-04-04T03:31:46.526Z,102111.19
2023-04-04T03:34:13.094Z,102101.56
2023-04-04T03:36:39.503Z,102107.22
2023-04-04T03:39:05.959Z,102103.75
2023-04-04T03:41:32.447Z,102102.25
2023-04-04T03:43:58.890Z,102104.50
2023-04-04T03:46:25.456Z,102114.94
2023-04-04T03:48:52.075Z,102114.41
2023-04-04T03:51:25.474Z,102113.03
2023-04-04T03:53:51.892Z,102114.38
2023-04-04T03:56:18.717Z,102119.88
2023-04-04T03:58:45.820Z,102119.16
2023-04-04T04:01:12.227Z,102122.59
2023-04-04T04:03:38.684Z,102115.22
2023-04-04T04:06:05.230Z,102110.56
2023-04-04T04:08:31.652Z,102112.28
2023-04-04T04:11:06.869Z,102118.44
2023-04-04T04:13:38.754Z,102111.19
2023-04-04T04:16:06.114Z,102115.72
2023-04-04T04:18:33.618Z,102110.31
2023-04-04T04:21:02.661Z,102119.44
2023-04-04T04:23:29.602Z,102121.38
2023-04-04T04:25:56.346Z,102116.31
2023-04-04T04:28:34.188Z,102120.88
2023-04-04T04:31:08.507Z,102123.06
2023-04-04T04:33:35.767Z,102121.56
2023-04-04T04:36:03.690Z,102122.53
2023-04-04T04:38:30.578Z,102115.28
2023-04-04T04:40:57.487Z,102115.19
2023-04-04T04:43:24.336Z,102111.47
2023-04-04T04:45:51.260Z,102114.19
2023-04-04T04:48:18.202Z,102105.09
2023-04-04T04:50:45.969Z,102101.66
2023-04-04T04:53:13.015Z,102104.22
2023-04-04T04:55:39.771Z,102107.69
2023-04-04T04:58:06.917Z,102113.22
2023-04-04T05:00:33.355Z,102112.25
2023-04-04T05:03:00.867Z,102110.50
2023-04-04T05:05:28.151Z,102117.03
2023-04-04T05:07:54.586Z,102109.25
2023-04-04T05:10:21.048Z,102112.28
2023-04-04T05:12:48.102Z,102119.78
2023-04-04T05:15:14.706Z,102110.91
2023-04-04T05:17:41.398Z,102120.97
2023-04-04T05:20:08.621Z,102118.41
2023-04-04T05:22:35.133Z,102120.34
2023-04-04T05:25:01.587Z,102118.63
2023-04-04T05:27:28.043Z,102125.03
2023-04-04T05:29:54.546Z,102127.81
2023-04-04T05:32:21.102Z,102124.25
2023-04-04T05:34:47.531Z,102133.38
2023-04-04T05:37:14.168Z,102133.47
2023-04-04T05:39:40.660Z,102127.31
2023-04-04T05:42:07.155Z,102123.63
2023-04-04T05:44:33.626Z,102129.91
2023-04-04T05:47:00.047Z,102129.03
2023-04-04T05:49:26.529Z,102132.72
2023-04-04T05:51:56.452Z,102134.56
2023-04-04T05:54:23.378Z,102130.13
2023-04-04T05:56:49.818Z,102141.81
2023-04-04T05:59:16.571Z,102132.72
2023-04-04T06:01:43.128Z,102130.75
2023-04-04T06:04:09.640Z,102124.47
2023-04-04T06:06:36.073Z,102121.69
2023-04-04T06:09:02.833Z,102133.38
2023-04-04T06:11:29.997Z,102136.72
2023-04-04T06:13:56.403Z,102137.59
2023-04-04T06:16:23.445Z,102135.50
2023-04-04T06:18:50.061Z,102134.41
2023-04-04T06:21:16.439Z,102137.66
2023-04-04T06:23:42.851Z,102141.72
2023-04-04T06:26:09.415Z,102147.53
2023-04-04T06:28:36.618Z,102146.22
2023-04-04T06:31:06.289Z,102145.50
2023-04-04T06:33:32.691Z,102149.38
2023-04-04T06:35:59.251Z,102144.13
2023-04-04T06:38:27.419Z,102148.75
2023-04-04T06:40:53.803Z,102154.41
2023-04-04T06:43:20.698Z,102154.56
2023-04-04T06:45:47.211Z,102148.56
2023-04-04T06:48:13.640Z,102160.28
2023-04-04T06:50:40.394Z,102151.19
2023-04-04T06:53:07.435Z,102150.22
2023-04-04T06:55:34.897Z,102151.97
2023-04-04T06:58:01.976Z,102150.22
2023-04-04T07:00:28.415Z,102149.25
2023-04-04T07:02:59.327Z,102149.25
2023-04-04T07:05:26.366Z,102145.03
2023-04-04T07:07:56.959Z,102149.72
2023-04-04T07:10:24.797Z,102149.69
2023-04-04T07:12:51.722Z,102146.94
2023-04-04T07:15:18.159Z,102153.22
2023-04-04T07:17:44.597Z,102154.06
2023-04-04T07:20:11.422Z,102154.03
2023-04-04T07:22:39.455Z,102154.72
2023-04-04T07:25:06.865Z,102154.69
2023-04-04T07:27:33.265Z,102147.44
2023-04-04T07:29:59.663Z,102159.00
2023-04-04T07:32:26.169Z,102146.19
2023-04-04T07:34:52.645Z,102154.41
2023-04-04T07:37:19.173Z,102157.78
2023-04-04T07:39:45.646Z,102152.41
2023-04-04T07:42:12.241Z,102153.94
2023-04-04T07:44:38.738Z,102153.84
2023-04-04T07:47:09.941Z,102142.84
2023-04-04T07:49:37.058Z,102148.19
2023-04-04T07:52:04.544Z,102149.78
2023-04-04T07:54:31.281Z,102150.94
2023-04-04T07:56:57.679Z,102141.22
2023-04-04T07:59:24.207Z,102133.94
2023-04-04T08:01:50.720Z,102132.09
2023-04-04T08:04:17.365Z,102132.25
2023-04-04T08:06:43.886Z,102124.94
2023-04-04T08:09:10.344Z,102129.66
2023-04-04T08:11:37.611Z,102134.13
2023-04-04T08:14:04.759Z,102122.91
2023-04-04T08:16:31.350Z,102124.34
2023-04-04T08:18:59.989Z,102126.63
2023-04-04T08:21:26.549Z,102131.22
2023-04-04T08:23:52.980Z,102130.78
2023-04-04T08:26:19.390Z,102120.41
2023-04-04T08:28:46.063Z,102124.09
2023-04-04T08:31:12.609Z,102122.34
2023-04-04T08:33:47.324Z,102109.81
2023-04-04T08:36:14.748Z,102106.22
2023-04-04T08:38:41.191Z,102105.03
2023-04-04T08:41:07.880Z,102111.50
2023-04-04T08:43:38.058Z,102106.03
2023-04-04T08:46:05.975Z,102109.44
2023-04-04T08:48:33.903Z,102104.78
2023-04-04T08:51:01.146Z,102103.88
2023-04-04T08:53:29.499Z,102098.66
2023-04-04T08:55:59.579Z,102103.09
2023-04-04T08:58:27.149Z,102100.59
2023-04-04T09:00:54.653Z,102097.81
2023-04-04T09:03:30.951Z,102091.41
2023-04-04T09:05:57.883Z,102086.75
2023-04-04T09:08:24.920Z,102090.56
2023-04-04T09:10:53.190Z,102080.72
2023-04-04T09:13:20.703Z,102080.94
2023-04-04T09:15:49.887Z,102077.41
2023-04-04T09:18:18.041Z,102077.47
2023-04-04T09:20:46.740Z,102068.16
2023-04-04T09:23:18.395Z,102071.16
2023-04-04T09:25:56.240Z,102064.50
2023-04-04T09:28:29.482Z,102066.09
2023-04-04T09:30:55.962Z,102062.22
2023-04-04T09:33:26.759Z,102062.81
2023-04-04T09:36:03.440Z,102068.53
2023-04-04T09:38:31.243Z,102057.63
2023-04-04T09:40:58.383Z,102051.50
2023-04-04T09:43:25.748Z,102050.66
2023-04-04T09:45:54.972Z,102056.56
2023-04-04T09:48:34.602Z,102063.44
2023-04-04T09:51:04.906Z,102056.44
2023-04-04T09:53:34.545Z,102058.88
2023-04-04T09:56:02.854Z,102052.22
2023-04-04T09:58:32.032Z,102048.44
2023-04-04T10:01:03.399Z,102048.63
2023-04-04T10:03:31.019Z,102052.72
2023-04-04T10:06:07.045Z,102047.03
2023-04-04T10:08:35.048Z,102053.53
2023-04-04T10:11:10.342Z,102047.66
2023-04-04T10:13:44.547Z,102036.63
2023-04-04T10:16:11.849Z,102038.06
2023-04-04T10:18:39.138Z,102028.50
2023-04-04T10:23:37.052Z,102041.38
2023-04-04T10:26:03.526Z,102035.81
2023-04-04T10:28:30.023Z,102022.00
2023-04-04T10:31:25.649Z,102030.78
2023-04-04T10:34:17.425Z,102025.31
2023-04-04T10:36:51.404Z,102022.66
2023-04-04T10:39:27.708Z,102022.03
2023-04-04T10:41:56.360Z,102022.53
2023-04-04T10:44:39.583Z,102014.97
2023-04-04T10:47:14.575Z,102018.03
2023-04-04T10:49:44.969Z,102017.13
2023-04-04T10:52:13.753Z,102012.72
2023-04-04T10:54:41.957Z,102016.25
2023-04-04T10:57:08.619Z,102008.63
2023-04-04T11:00:08.637Z,101999.41
2023-04-04T11:02:46.193Z,102007.03
2023-04-04T11:05:18.508Z,101989.75
2023-04-04T11:07:57.207Z,101970.38
2023-04-04T11:10:41.300Z,101964.16
2023-04-04T11:13:22.061Z,101979.63
2023-04-04T11:16:13.899Z,101969.56
2023-04-04T11:18:40.298Z,101962.53
2023-04-04T11:21:08.542Z,101950.00
2023-04-04T11:23:47.373Z,101957.84
2023-04-04T11:26:16.887Z,101953.09
2023-04-04T11:28:45.461Z,101952.75
2023-04-04T11:31:15.763Z,101957.06
2023-04-04T11:34:03.686Z,101947.34
2023-04-04T11:36:36.034Z,101934.25
2023-04-04T11:39:14.409Z,101938.56
2023-04-04T11:41:53.019Z,101933.88
2023-04-04T11:44:21.376Z,101930.88
2023-04-04T11:46:50.590Z,101923.44
2023-04-04T11:49:18.548Z,101919.41
2023-04-04T11:51:45.804Z,101919.88
2023-04-04T11:54:17.242Z,101920.53
2023-04-04T11:56:45.324Z,101914.78
2023-04-04T11:59:20.448Z,101912.22
2023-04-04T12:01:48.892Z,101910.97
2023-04-04T12:04:19.968Z,101903.72
2023-04-04T12:06:57.803Z,101902.25
2023-04-04T12:09:26.263Z,101898.19
2023-04-04T12:11:52.849Z,101891.72
2023-04-04T12:14:20.903Z,101893.84
2023-04-04T12:16:53.680Z,101882.31
2023-04-04T12:19:21.444Z,101878.44
2023-04-04T12:21:48.768Z,101877.31
2023-04-04T12:24:15.854Z,101879.66
2023-04-04T12:26:44.646Z,101885.63
2023-04-04T12:29:13.717Z,101881.75
2023-04-04T12:31:42.863Z,101873.38
2023-04-04T12:34:21.764Z,101870.81
2023-04-04T12:36:49.054Z,101858.13
2023-04-04T12:39:16.788Z,101853.44
2023-04-04T12:41:54.092Z,101847.44
2023-04-04T12:44:31.683Z,101841.44
2023-04-04T12:47:00.464Z,101833.75
2023-04-04T12:49:32.454Z,101835.00
2023-04-04T12:52:04.952Z,101835.59
2023-04-04T12:54:32.676Z,101835.75
2023-04-04T12:57:01.645Z,101828.88
2023-04-04T12:59:29.784Z,101839.25
2023-04-04T13:01:56.586Z,101832.28
2023-04-04T13:04:24.733Z,101832.78
2023-04-04T13:06:51.794Z,101819.03
2023-04-04T13:09:20.751Z,101824.59
2023-04-04T13:12:04.480Z,101819.25
2023-04-04T13:15:01.827Z,101811.91
2023-04-04T13:17:47.204Z,101809.53
2023-04-04T13:20:15.580Z,101799.03
2023-04-04T13:22:42.801Z,101801.97
2023-04-04T13:25:10.791Z,101795.78
2023-04-04T13:27:38.160Z,101790.63
2023-04-04T13:30:06.538Z,101789.00
2023-04-04T13:32:33.819Z,101785.47
2023-04-04T13:35:00.384Z,101782.84
2023-04-04T13:37:28.059Z,101778.34
2023-04-04T13:39:54.561Z,101789.41
2023-04-04T13:42:23.260Z,101778.81
2023-04-04T13:44:49.847Z,101778.06
2023-04-04T13:47:16.535Z,101767.06
2023-04-04T13:49:43.022Z,101767.81
2023-04-04T13:52:09.444Z,101758.16
2023-04-04T13:54:35.812Z,101751.91
2023-04-04T13:57:02.349Z,101744.91
2023-04-04T13:59:28.795Z,101750.38
2023-04-04T14:01:55.679Z,101755.16
2023-04-04T14:04:24.068Z,101742.47
2023-04-04T14:06:50.900Z,101739.50
2023-04-04T14:09:17.266Z,101725.50
2023-04-04T14:11:43.788Z,101730.34
2023-04-04T14:14:10.281Z,101718.88
2023-04-04T14:16:36.731Z,101725.59
2023-04-04T14:19:03.325Z,101715.09
2023-04-04T14:21:29.817Z,101719.81
2023-04-04T14:23:56.252Z,101720.56
2023-04-04T14:26:22.694Z,101715.50
2023-04-04T14:28:49.134Z,101701.25
2023-04-04T14:31:15.614Z,101705.72
2023-04-04T14:33:42.064Z,101703.19
2023-04-04T14:36:08.533Z,101706.94
2023-04-04T14:38:34.937Z,101702.59
2023-04-04T14:41:02.006Z,101689.88
2023-04-04T14:43:28.483Z,101686.97
2023-04-04T14:45:55.044Z,101696.31
2023-04-04T14:48:21.530Z,101688.06
2023-04-04T14:50:47.959Z,101681.88
2023-04-04T14:53:14.409Z,101677.94
2023-04-04T14:55:41.191Z,101678.38
2023-04-04T14:58:08.219Z,101674.88
2023-04-04T15:00:34.864Z,101666.88
2023-04-04T15:03:01.563Z,101659.84
2023-04-04T15:05:28.272Z,101667.94
2023-04-04T15:07:55.585Z,101670.88
2023-04-04T15:10:22.170Z,101661.25
2023-04-04T15:12:48.571Z,101664.88
2023-04-04T15:15:15.795Z,101647.63
2023-04-04T15:17:42.227Z,101647.19
2023-04-04T15:20:09.566Z,101650.03
2023-04-04T15:22:36.298Z,101647.47
2023-04-04T15:25:02.739Z,101654.59
2023-04-04T15:27:29.114Z,101647.72
2023-04-04T15:29:55.556Z,101651.28
2023-04-04T15:32:22.000Z,101642.34
2023-04-04T15:34:48.569Z,101650.91
2023-04-04T15:37:15.748Z,101640.69
2023-04-04T15:39:52.312Z,101645.16
2023-04-04T15:42:20.231Z,101634.81
2023-04-04T15:44:46.695Z,101637.06
2023-04-04T15:47:13.305Z,101630.06
2023-04-04T15:49:39.773Z,101632.66
2023-04-04T15:52:06.331Z,101636.22
2023-04-04T15:54:32.837Z,101632.09
2023-04-04T15:56:59.312Z,101631.66
2023-04-04T15:59:26.393Z,101621.16
2023-04-04T16:01:53.066Z,101620.47
2023-04-04T16:04:19.457Z,101629.06
2023-04-04T16:06:45.890Z,101626.09
2023-04-04T16:09:12.289Z,101626.72
2023-04-04T16:11:39.036Z,101627.16
2023-04-04T16:14:08.741Z,101631.19
2023-04-04T16:16:36.464Z,101626.50
2023-04-04T16:19:02.929Z,101626.78
2023-04-04T16:21:31.032Z,101628.38
2023-04-04T16:23:57.558Z,101619.47
2023-04-04T16:26:24.072Z,101630.63
2023-04-04T16:28:50.800Z,101623.38
2023-04-04T16:31:17.372Z,101623.03
2023-04-04T16:33:44.053Z,101622.28
2023-04-04T16:36:10.743Z,101617.94
2023-04-04T16:38:37.157Z,101611.84
2023-04-04T16:41:04.813Z,101618.13
2023-04-04T16:43:31.346Z,101603.88
2023-04-04T16:45:57.889Z,101611.28
2023-04-04T16:48:24.333Z,101603.72
2023-04-04T16:50:50.994Z,101598.25
2023-04-04T16:53:17.431Z,101602.75
2023-04-04T16:55:43.899Z,101607.53
2023-04-04T16:58:10.355Z,101593.69
2023-04-04T17:00:36.797Z,101597.41
2023-04-04T17:03:03.989Z,101592.84
2023-04-04T17:05:30.680Z,101586.75
2023-04-04T17:07:57.132Z,101589.06
2023-04-04T17:10:23.580Z,101587.44
2023-04-04T17:12:51.145Z,101597.03
2023-04-04T17:15:18.058Z,101606.66
2023-04-04T17:17:44.885Z,101592.75
2023-04-04T17:20:17.478Z,101597.72
2023-04-04T17:22:45.410Z,101593.38
2023-04-04T17:25:12.044Z,101597.84
2023-04-04T17:27:38.444Z,101593.00
2023-04-04T17:30:05.791Z,101593.84
2023-04-04T17:32:33.425Z,101589.72
2023-04-04T17:35:00.240Z,101592.22
2023-04-04T17:37:28.553Z,101597.03
2023-04-04T17:39:54.949Z,101596.78
2023-04-04T17:42:21.391Z,101599.06
2023-04-04T17:44:47.780Z,101604.94
2023-04-04T17:47:14.249Z,101602.59
2023-04-04T17:49:40.643Z,101605.28
2023-04-04T17:52:07.128Z,101603.22
2023-04-04T17:54:33.512Z,101606.34
2023-04-04T17:57:00.331Z,101613.66
2023-04-04T17:59:27.821Z,101614.16
2023-04-04T18:01:54.494Z,101615.41
2023-04-04T18:04:22.209Z,101612.78
2023-04-04T18:06:48.676Z,101620.28
2023-04-04T18:09:15.158Z,101623.75
2023-04-04T18:11:41.838Z,101619.72
2023-04-04T18:14:08.756Z,101622.03
2023-04-04T18:16:39.064Z,101630.47
2023-04-04T18:19:06.551Z,101634.00
2023-04-04T18:21:33.077Z,101626.13
2023-04-04T18:23:59.516Z,101637.28
2023-04-04T18:26:26.019Z,101628.09
2023-04-04T18:28:52.397Z,101642.81
2023-04-04T18:31:18.836Z,101642.34
2023-04-04T18:33:45.560Z,101652.44
2023-04-04T18:36:12.001Z,101651.19
2023-04-04T18:38:38.443Z,101661.13
2023-04-04T18:41:05.745Z,101662.09
2023-04-04T18:43:32.359Z,101659.13
2023-04-04T18:45:59.590Z,101659.56
2023-04-04T18:48:26.103Z,101659.31
2023-04-04T18:50:52.485Z,101648.09
2023-04-04T18:53:19.012Z,101659.47
2023-04-04T18:55:46.201Z,101665.38
2023-04-04T18:58:12.658Z,101675.00
2023-04-04T19:00:39.403Z,101669.91
2023-04-04T19:03:07.647Z,101668.41
2023-04-04T19:05:36.820Z,101677.16
2023-04-04T19:08:06.788Z,101684.22
2023-04-04T19:10:34.794Z,101676.03
2023-04-04T19:13:01.475Z,101685.13
2023-04-04T19:15:27.946Z,101680.16
2023-04-04T19:17:54.542Z,101685.19
2023-04-04T19:20:21.073Z,101686.34
2023-04-04T19:22:47.494Z,101684.16
2023-04-04T19:25:16.465Z,101692.38
2023-04-04T19:27:42.879Z,101684.84
2023-04-04T19:30:33.526Z,101690.50
2023-04-04T19:33:01.714Z,101694.97
2023-04-04T19:36:11.052Z,101686.91
2023-04-04T19:38:44.698Z,101691.69
2023-04-04T19:41:16.713Z,101693.25
2023-04-04T19:43:45.534Z,101696.50
2023-04-04T19:46:15.291Z,101694.59
2023-04-04T19:48:53.405Z,101687.22
2023-04-04T19:51:20.000Z,101693.34
2023-04-04T19:53:52.404Z,101696.44
2023-04-04T19:56:21.572Z,101692.00
2023-04-04T19:58:52.773Z,101693.03
2023-04-04T20:01:24.337Z,101692.00
2023-04-04T20:03:50.919Z,101707.72
2023-04-04T20:06:28.228Z,101703.25
2023-04-04T20:08:56.387Z,101709.06
2023-04-04T20:11:29.060Z,101704.81
2023-04-04T20:14:05.013Z,101701.22
2023-04-04T20:16:31.911Z,101701.56
2023-04-04T20:19:00.151Z,101699.50
2023-04-04T20:21:31.423Z,101701.88
2023-04-04T20:24:04.409Z,101704.22
2023-04-04T20:26:42.587Z,101703.19
2023-04-04T20:29:11.775Z,101708.84
2023-04-04T20:31:44.972Z,101718.19
2023-04-04T20:34:42.842Z,101723.84
2023-04-04T20:37:12.257Z,101722.09
2023-04-04T20:39:45.357Z,101718.69
2023-04-04T20:42:18.053Z,101725.16
2023-04-04T20:44:45.269Z,101729.09
2023-04-04T20:47:39.402Z,101723.91
2023-04-04T20:50:21.022Z,101724.97
2023-04-04T20:52:51.137Z,101723.25
2023-04-04T20:55:22.363Z,101722.38
2023-04-04T20:57:50.302Z,101727.31
2023-04-04T21:00:25.765Z,101724.91
2023-04-04T21:03:08.512Z,101724.06
2023-04-04T21:05:40.991Z,101719.94
2023-04-04T21:08:19.757Z,101733.91
2023-04-04T21:10:50.822Z,101727.94
2023-04-04T21:13:26.699Z,101736.13
2023-04-04T21:16:01.230Z,101729.75
2023-04-04T21:18:31.732Z,101730.78
2023-04-04T21:21:17.522Z,101730.25
2023-04-04T21:23:51.100Z,101741.16
2023-04-04T21:26:26.618Z,101736.03
2023-04-04T21:28:53.723Z,101725.28
2023-04-04T21:31:25.626Z,101728.16
2023-04-04T21:33:56.004Z,101723.72
2023-04-04T21:36:28.494Z,101728.16
2023-04-04T21:38:59.928Z,101726.13
2023-04-04T21:41:34.190Z,101723.38
2023-04-04T21:44:03.159Z,101716.91
2023-04-04T21:46:32.512Z,101706.84
2023-04-04T21:48:58.989Z,101707.00
2023-04-04T21:51:26.173Z,101705.59
2023-04-04T21:53:52.679Z,101715.00
2023-04-04T21:56:19.484Z,101724.38
2023-04-04T21:58:46.032Z,101713.91
2023-04-04T22:01:12.635Z,101715.25
2023-04-04T22:03:39.448Z,101721.91
2023-04-04T22:06:06.753Z,101720.19
2023-04-04T22:08:33.353Z,101722.25
2023-04-04T22:11:02.096Z,101719.66
2023-04-04T22:13:35.418Z,101717.94
2023-04-04T22:16:04.494Z,101709.91
2023-04-04T22:18:31.118Z,101701.00
2023-04-04T22:20:58.500Z,101704.78
2023-04-04T22:23:25.561Z,101699.63
2023-04-04T22:25:52.256Z,101696.34
2023-04-04T22:28:24.647Z,101699.59
2023-04-04T22:30:51.068Z,101695.44
2023-04-04T22:33:17.432Z,101693.72
2023-04-04T22:35:45.510Z,101690.59
2023-04-04T22:38:14.471Z,101699.44
2023-04-04T22:40:42.012Z,101705.38
2023-04-04T22:43:09.430Z,101711.47
2023-04-04T22:45:35.871Z,101708.53
2023-04-04T22:48:03.817Z,101710.00
2023-04-04T22:50:30.558Z,101703.00
2023-04-04T22:52:58.778Z,101699.53
2023-04-04T22:55:26.384Z,101708.75
2023-04-04T22:57:52.842Z,101700.41
2023-04-04T23:00:20.136Z,101704.00
2023-04-04T23:02:49.437Z,101695.81
2023-04-04T23:05:17.722Z,101697.84
2023-04-04T23:07:45.718Z,101691.34
2023-04-04T23:10:14.201Z,101689.94
2023-04-04T23:12:40.776Z,101696.44
2023-04-04T23:15:08.346Z,101699.31
2023-04-04T23:17:36.301Z,101697.91
2023-04-04T23:20:09.984Z,101687.63
2023-04-04T23:22:37.439Z,101700.88
2023-04-04T23:25:07.867Z,101695.06
2023-04-04T23:27:34.800Z,101689.06
2023-04-04T23:30:04.764Z,101690.38
2023-04-04T23:32:32.166Z,101685.81
2023-04-04T23:34:58.907Z,101686.44
2023-04-04T23:37:25.290Z,101689.09
2023-04-04T23:39:51.725Z,101691.41
2023-04-04T23:42:18.099Z,101682.84
2023-04-04T23:44:45.621Z,101687.88
2023-04-04T23:47:12.467Z,101684.91
2023-04-04T23:49:38.958Z,101688.22
2023-04-04T23:52:05.990Z,101692.13
2023-04-04T23:54:32.380Z,101689.84
2023-04-04T23:56:58.817Z,101682.16
2023-04-04T23:59:25.803Z,101687.19
